sensor_id;sensor_type;location;lat;lon;timestamp;pressure;altitude;pressure_sealevel;temperature;humidity
48778;BME280;34578;0.000;0.000;2023-08-31T00:01:54;96233.72;;;20.71;61.52
48778;BME280;34578;0.000;0.000;2023-08-31T00:06:54;96238.81;;;20.71;61.35
48778;BME280;34578;0.000;0.000;2023-08-31T00:11:56;96245.56;;;20.72;61.49
48778;BME280;34578;0.000;0.000;2023-08-31T00:16:57;96232.88;;;20.70;61.29
48778;BME280;34578;0.000;0.000;2023-08-31T00:21:57;96232.84;;;20.72;61.34
48778;BME280;34578;0.000;0.000;2023-08-31T00:26:58;96237.94;;;20.72;61.06
48778;BME280;34578;0.000;0.000;2023-08-31T00:31:58;96232.88;;;20.70;61.09
48778;BME280;34578;0.000;0.000;2023-08-31T00:36:59;96231.19;;;20.69;61.53
48778;BME280;34578;0.000;0.000;2023-08-31T00:42:00;96238.81;;;20.71;61.22
48778;BME280;34578;0.000;0.000;2023-08-31T00:47:01;96236.28;;;20.68;61.24
48778;BME280;34578;0.000;0.000;2023-08-31T00:52:02;96235.41;;;20.70;61.15
48778;BME280;34578;0.000;0.000;2023-08-31T00:57:03;96240.50;;;20.70;61.06
48778;BME280;34578;0.000;0.000;2023-08-31T01:02:24;96240.50;;;20.70;61.35
48778;BME280;34578;0.000;0.000;2023-08-31T01:07:36;96195.84;;;20.54;61.21
48778;BME280;34578;0.000;0.000;2023-08-31T01:12:50;96220.16;;;20.69;61.20
48778;BME280;34578;0.000;0.000;2023-08-31T01:17:52;96219.34;;;20.68;61.10
48778;BME280;34578;0.000;0.000;2023-08-31T01:23:07;96204.16;;;20.62;61.34
48778;BME280;34578;0.000;0.000;2023-08-31T01:28:11;96239.69;;;20.68;61.14
48778;BME280;34578;0.000;0.000;2023-08-31T01:33:12;96238.84;;;20.68;61.25
48778;BME280;34578;0.000;0.000;2023-08-31T01:38:17;96238.88;;;20.66;61.05
48778;BME280;34578;0.000;0.000;2023-08-31T01:43:19;96236.34;;;20.66;61.25
48778;BME280;34578;0.000;0.000;2023-08-31T01:48:21;96238.03;;;20.64;61.12
48778;BME280;34578;0.000;0.000;2023-08-31T01:53:22;96244.81;;;20.65;61.12
48778;BME280;34578;0.000;0.000;2023-08-31T01:58:22;96249.06;;;20.66;61.08
48778;BME280;34578;0.000;0.000;2023-08-31T02:03:23;96249.91;;;20.65;61.16
48778;BME280;34578;0.000;0.000;2023-08-31T02:08:23;96259.25;;;20.66;61.17
48778;BME280;34578;0.000;0.000;2023-08-31T02:13:25;96265.16;;;20.65;60.50
48778;BME280;34578;0.000;0.000;2023-08-31T02:18:25;96271.13;;;20.64;61.26
48778;BME280;34578;0.000;0.000;2023-08-31T02:23:26;96266.88;;;20.66;61.18
48778;BME280;34578;0.000;0.000;2023-08-31T02:28:26;96266.06;;;20.63;61.23
48778;BME280;34578;0.000;0.000;2023-08-31T02:33:26;96261.81;;;20.63;60.99
48778;BME280;34578;0.000;0.000;2023-08-31T02:38:27;96272.84;;;20.64;60.85
48778;BME280;34578;0.000;0.000;2023-08-31T02:43:27;96261.81;;;20.63;61.10
48778;BME280;34578;0.000;0.000;2023-08-31T02:48:31;96271.13;;;20.64;61.02
48778;BME280;34578;0.000;0.000;2023-08-31T02:53:31;96272.78;;;20.65;61.10
48778;BME280;34578;0.000;0.000;2023-08-31T02:58:32;96265.22;;;20.62;61.17
48778;BME280;34578;0.000;0.000;2023-08-31T03:03:32;96263.53;;;20.63;60.88
48778;BME280;34578;0.000;0.000;2023-08-31T03:08:32;96266.06;;;20.63;60.99
48778;BME280;34578;0.000;0.000;2023-08-31T03:13:33;96272.84;;;20.64;60.96
48778;BME280;34578;0.000;0.000;2023-08-31T03:18:34;96272.03;;;20.60;61.02
48778;BME280;34578;0.000;0.000;2023-08-31T03:23:35;96277.06;;;20.63;61.11
48778;BME280;34578;0.000;0.000;2023-08-31T03:28:35;96268.63;;;20.61;60.90
48778;BME280;34578;0.000;0.000;2023-08-31T03:33:36;96271.97;;;20.63;60.89
48778;BME280;34578;0.000;0.000;2023-08-31T03:38:36;96271.97;;;20.63;61.07
48778;BME280;34578;0.000;0.000;2023-08-31T03:43:40;96268.63;;;20.61;60.78
48778;BME280;34578;0.000;0.000;2023-08-31T03:48:41;96288.13;;;20.62;61.14
48778;BME280;34578;0.000;0.000;2023-08-31T03:53:41;96287.28;;;20.62;61.01
48778;BME280;34578;0.000;0.000;2023-08-31T03:58:41;96292.38;;;20.62;60.90
48778;BME280;34578;0.000;0.000;2023-08-31T04:03:42;96289.84;;;20.62;60.65
48778;BME280;34578;0.000;0.000;2023-08-31T04:08:42;96296.56;;;20.64;60.40
48778;BME280;34578;0.000;0.000;2023-08-31T04:13:43;96304.03;;;20.73;60.27
48778;BME280;34578;0.000;0.000;2023-08-31T04:18:43;96310.88;;;20.71;60.21
48778;BME280;34578;0.000;0.000;2023-08-31T04:23:45;96318.44;;;20.76;60.18
48778;BME280;34578;0.000;0.000;2023-08-31T04:28:46;96327.72;;;20.77;60.17
48778;BME280;34578;0.000;0.000;2023-08-31T04:33:46;96333.69;;;20.76;60.06
48778;BME280;34578;0.000;0.000;2023-08-31T04:38:48;96325.31;;;20.69;60.64
48778;BME280;34578;0.000;0.000;2023-08-31T04:43:51;96342.28;;;20.69;60.57
48778;BME280;34578;0.000;0.000;2023-08-31T04:48:52;96336.50;;;20.59;60.47
48778;BME280;34578;0.000;0.000;2023-08-31T04:53:52;96326.25;;;20.62;60.23
48778;BME280;34578;0.000;0.000;2023-08-31T04:58:52;96330.53;;;20.60;60.28
48778;BME280;34578;0.000;0.000;2023-08-31T05:03:53;96343.28;;;20.57;60.38
48778;BME280;34578;0.000;0.000;2023-08-31T05:08:53;96337.38;;;20.58;60.02
48778;BME280;34578;0.000;0.000;2023-08-31T05:13:54;96350.09;;;20.55;60.17
48778;BME280;34578;0.000;0.000;2023-08-31T05:18:54;96365.41;;;20.52;60.00
48778;BME280;34578;0.000;0.000;2023-08-31T05:23:54;96373.97;;;20.45;60.20
48778;BME280;34578;0.000;0.000;2023-08-31T05:28:55;96381.63;;;20.44;60.35
48778;BME280;34578;0.000;0.000;2023-08-31T05:33:55;96379.06;;;20.45;60.08
48778;BME280;34578;0.000;0.000;2023-08-31T05:38:55;96390.91;;;20.46;59.97
48778;BME280;34578;0.000;0.000;2023-08-31T05:43:56;96396.06;;;20.45;60.13
48778;BME280;34578;0.000;0.000;2023-08-31T05:48:56;96400.22;;;20.47;59.91
48778;BME280;34578;0.000;0.000;2023-08-31T05:53:56;96407.97;;;20.42;59.94
48778;BME280;34578;0.000;0.000;2023-08-31T05:58:57;96411.34;;;20.40;59.93
48778;BME280;34578;0.000;0.000;2023-08-31T06:03:57;96417.31;;;20.38;60.09
48778;BME280;34578;0.000;0.000;2023-08-31T06:08:58;96426.59;;;20.40;60.18
48778;BME280;34578;0.000;0.000;2023-08-31T06:13:58;96434.25;;;20.38;60.24
48778;BME280;34578;0.000;0.000;2023-08-31T06:18:59;96425.00;;;20.34;60.16
48778;BME280;34578;0.000;0.000;2023-08-31T06:23:59;96419.88;;;20.37;60.17
48778;BME280;34578;0.000;0.000;2023-08-31T06:28:59;96439.34;;;20.39;60.14
48778;BME280;34578;0.000;0.000;2023-08-31T06:34:00;96429.13;;;20.43;60.02
48778;BME280;34578;0.000;0.000;2023-08-31T06:39:00;96429.19;;;20.38;60.07
48778;BME280;34578;0.000;0.000;2023-08-31T06:44:02;96427.44;;;20.41;60.26
48778;BME280;34578;0.000;0.000;2023-08-31T06:49:02;96438.53;;;20.34;60.40
48778;BME280;34578;0.000;0.000;2023-08-31T06:54:05;96448.75;;;20.30;60.43
48778;BME280;34578;0.000;0.000;2023-08-31T06:59:06;96453.78;;;20.36;60.35
48778;BME280;34578;0.000;0.000;2023-08-31T07:04:06;96463.06;;;20.39;60.23
48778;BME280;34578;0.000;0.000;2023-08-31T07:09:07;96458.81;;;20.40;60.36
48778;BME280;34578;0.000;0.000;2023-08-31T07:14:08;96474.13;;;20.36;60.05
48778;BME280;34578;0.000;0.000;2023-08-31T07:19:08;96465.69;;;20.34;59.90
48778;BME280;34578;0.000;0.000;2023-08-31T07:24:09;96472.47;;;20.32;59.81
48778;BME280;34578;0.000;0.000;2023-08-31T07:29:10;96460.63;;;20.31;59.98
48778;BME280;34578;0.000;0.000;2023-08-31T07:34:10;96461.47;;;20.28;60.06
48778;BME280;34578;0.000;0.000;2023-08-31T07:39:10;96484.38;;;20.28;60.04
48778;BME280;34578;0.000;0.000;2023-08-31T07:44:11;96479.41;;;20.18;60.10
48778;BME280;34578;0.000;0.000;2023-08-31T07:49:11;96496.34;;;20.19;60.18
48778;BME280;34578;0.000;0.000;2023-08-31T07:54:19;96490.44;;;20.15;59.85
48778;BME280;34578;0.000;0.000;2023-08-31T07:59:19;96487.91;;;20.17;59.72
48778;BME280;34578;0.000;0.000;2023-08-31T08:04:20;96499.75;;;20.18;59.09
48778;BME280;34578;0.000;0.000;2023-08-31T08:09:20;96504.75;;;20.27;58.83
48778;BME280;34578;0.000;0.000;2023-08-31T08:14:21;96509.00;;;20.25;58.57
48778;BME280;34578;0.000;0.000;2023-08-31T08:19:22;96502.97;;;20.32;58.24
48778;BME280;34578;0.000;0.000;2023-08-31T08:24:23;96517.41;;;20.31;58.33
48778;BME280;34578;0.000;0.000;2023-08-31T08:29:23;96504.69;;;20.33;58.33
48778;BME280;34578;0.000;0.000;2023-08-31T08:34:25;96514.88;;;20.30;57.60
48778;BME280;34578;0.000;0.000;2023-08-31T08:39:26;96519.91;;;20.37;57.99
48778;BME280;34578;0.000;0.000;2023-08-31T08:44:31;96520.66;;;20.43;58.03
48778;BME280;34578;0.000;0.000;2023-08-31T08:49:33;96526.56;;;20.47;57.87
48778;BME280;34578;0.000;0.000;2023-08-31T08:54:34;96533.31;;;20.49;57.41
48778;BME280;34578;0.000;0.000;2023-08-31T08:59:35;96534.97;;;20.52;57.34
48778;BME280;34578;0.000;0.000;2023-08-31T09:04:35;96540.06;;;20.52;57.40
48778;BME280;34578;0.000;0.000;2023-08-31T09:09:48;96540.94;;;20.49;57.72
48778;BME280;34578;0.000;0.000;2023-08-31T09:14:59;96531.69;;;20.42;57.72
48778;BME280;34578;0.000;0.000;2023-08-31T09:20:01;96544.31;;;20.48;57.74
48778;BME280;34578;0.000;0.000;2023-08-31T09:25:04;96535.00;;;20.47;57.77
48778;BME280;34578;0.000;0.000;2023-08-31T09:30:06;96540.09;;;20.47;57.86
48778;BME280;34578;0.000;0.000;2023-08-31T09:35:10;96546.03;;;20.49;57.84
48778;BME280;34578;0.000;0.000;2023-08-31T09:40:14;96548.59;;;20.49;57.86
48778;BME280;34578;0.000;0.000;2023-08-31T09:45:17;96541.78;;;20.48;57.51
48778;BME280;34578;0.000;0.000;2023-08-31T09:50:18;96551.13;;;20.46;57.66
48778;BME280;34578;0.000;0.000;2023-08-31T09:55:20;96560.44;;;20.49;57.38
48778;BME280;34578;0.000;0.000;2023-08-31T10:00:20;96551.94;;;20.48;57.51
48778;BME280;34578;0.000;0.000;2023-08-31T10:05:21;96563.84;;;20.48;57.44
48778;BME280;34578;0.000;0.000;2023-08-31T10:10:23;96562.16;;;20.47;56.85
48778;BME280;34578;0.000;0.000;2023-08-31T10:15:26;96565.53;;;20.47;57.10
48778;BME280;34578;0.000;0.000;2023-08-31T10:20:31;96540.19;;;20.42;57.10
48778;BME280;34578;0.000;0.000;2023-08-31T10:31:05;96549.41;;;20.48;56.34
48778;BME280;34578;0.000;0.000;2023-08-31T10:36:18;96551.94;;;20.48;56.94
48778;BME280;34578;0.000;0.000;2023-08-31T10:41:20;96546.03;;;20.48;57.06
48778;BME280;34578;0.000;0.000;2023-08-31T10:51:30;96550.28;;;20.47;57.29
48778;BME280;34578;0.000;0.000;2023-08-31T10:56:30;96543.50;;;20.46;56.54
48778;BME280;34578;0.000;0.000;2023-08-31T11:07:16;96543.50;;;20.49;56.98
48778;BME280;34578;0.000;0.000;2023-08-31T11:12:17;96549.41;;;20.48;57.21
48778;BME280;34578;0.000;0.000;2023-08-31T11:17:17;96551.13;;;20.49;57.07
48778;BME280;34578;0.000;0.000;2023-08-31T11:22:18;96533.34;;;20.46;56.90
48778;BME280;34578;0.000;0.000;2023-08-31T11:27:20;96546.88;;;20.48;56.96
48778;BME280;34578;0.000;0.000;2023-08-31T11:32:23;96538.41;;;20.49;57.03
48778;BME280;34578;0.000;0.000;2023-08-31T11:37:24;96546.03;;;20.49;56.72
48778;BME280;34578;0.000;0.000;2023-08-31T11:42:27;96535.88;;;20.48;56.01
48778;BME280;34578;0.000;0.000;2023-08-31T11:47:27;96541.78;;;20.50;56.42
48778;BME280;34578;0.000;0.000;2023-08-31T11:52:27;96540.94;;;20.49;56.77
48778;BME280;34578;0.000;0.000;2023-08-31T11:57:28;96535.00;;;20.50;56.97
48778;BME280;34578;0.000;0.000;2023-08-31T12:02:28;96530.84;;;20.43;55.94
48778;BME280;34578;0.000;0.000;2023-08-31T12:07:29;96537.53;;;20.50;55.96
48778;BME280;34578;0.000;0.000;2023-08-31T12:12:32;96542.63;;;20.49;55.96
48778;BME280;34578;0.000;0.000;2023-08-31T12:17:37;96549.41;;;20.50;55.79
48778;BME280;34578;0.000;0.000;2023-08-31T12:22:39;96541.75;;;20.51;55.62
48778;BME280;34578;0.000;0.000;2023-08-31T12:27:39;96534.97;;;20.53;55.54
48778;BME280;34578;0.000;0.000;2023-08-31T12:32:40;96535.81;;;20.51;55.10
48778;BME280;34578;0.000;0.000;2023-08-31T12:37:41;96534.97;;;20.53;55.05
48778;BME280;34578;0.000;0.000;2023-08-31T12:42:41;96519.69;;;20.53;55.12
48778;BME280;34578;0.000;0.000;2023-08-31T12:47:42;96526.34;;;20.63;55.42
48778;BME280;34578;0.000;0.000;2023-08-31T12:52:42;96517.00;;;20.65;55.07
48778;BME280;34578;0.000;0.000;2023-08-31T12:57:46;96519.53;;;20.68;54.82
48778;BME280;34578;0.000;0.000;2023-08-31T13:02:46;96514.44;;;20.68;54.77
48778;BME280;34578;0.000;0.000;2023-08-31T13:07:47;96517.81;;;20.70;54.68
48778;BME280;34578;0.000;0.000;2023-08-31T13:12:47;96517.06;;;20.61;55.26
48778;BME280;34578;0.000;0.000;2023-08-31T13:17:47;96514.44;;;20.68;55.86
48778;BME280;34578;0.000;0.000;2023-08-31T13:22:48;96524.56;;;20.71;55.67
48778;BME280;34578;0.000;0.000;2023-08-31T13:27:48;96520.34;;;20.70;54.97
48778;BME280;34578;0.000;0.000;2023-08-31T13:32:49;96522.88;;;20.70;54.96
48778;BME280;34578;0.000;0.000;2023-08-31T13:37:49;96527.97;;;20.70;54.96
48778;BME280;34578;0.000;0.000;2023-08-31T13:42:57;96531.34;;;20.72;54.47
48778;BME280;34578;0.000;0.000;2023-08-31T13:48:01;96521.22;;;20.69;54.54
48778;BME280;34578;0.000;0.000;2023-08-31T13:53:02;96513.59;;;20.68;54.86
48778;BME280;34578;0.000;0.000;2023-08-31T13:58:04;96512.75;;;20.67;54.58
48778;BME280;34578;0.000;0.000;2023-08-31T14:03:06;96511.91;;;20.68;54.95
48778;BME280;34578;0.000;0.000;2023-08-31T14:08:07;96514.44;;;20.68;54.77
48778;BME280;34578;0.000;0.000;2023-08-31T14:13:07;96507.66;;;20.67;54.89
48778;BME280;34578;0.000;0.000;2023-08-31T14:18:07;96499.19;;;20.65;54.61
48778;BME280;34578;0.000;0.000;2023-08-31T14:23:08;96504.31;;;20.64;54.88
48778;BME280;34578;0.000;0.000;2023-08-31T14:28:08;96492.47;;;20.61;55.70
48778;BME280;34578;0.000;0.000;2023-08-31T14:33:09;96498.44;;;20.57;56.59
48778;BME280;34578;0.000;0.000;2023-08-31T14:38:10;96493.22;;;20.69;56.80
48778;BME280;34578;0.000;0.000;2023-08-31T14:43:11;96494.03;;;20.71;57.00
48778;BME280;34578;0.000;0.000;2023-08-31T14:48:12;96499.16;;;20.68;56.89
48778;BME280;34578;0.000;0.000;2023-08-31T14:53:12;96500.16;;;20.55;55.52
48778;BME280;34578;0.000;0.000;2023-08-31T14:58:12;96500.97;;;20.57;54.40
48778;BME280;34578;0.000;0.000;2023-08-31T15:03:13;96506.06;;;20.57;53.31
48778;BME280;34578;0.000;0.000;2023-08-31T15:08:13;96511.13;;;20.60;52.59
48778;BME280;34578;0.000;0.000;2023-08-31T15:13:13;96492.31;;;20.73;52.37
48778;BME280;34578;0.000;0.000;2023-08-31T15:18:14;96507.47;;;20.82;52.26
48778;BME280;34578;0.000;0.000;2023-08-31T15:23:14;96502.38;;;20.82;51.64
48778;BME280;34578;0.000;0.000;2023-08-31T15:28:15;96507.41;;;20.88;52.36
48778;BME280;34578;0.000;0.000;2023-08-31T15:33:15;96509.09;;;20.89;51.07
48778;BME280;34578;0.000;0.000;2023-08-31T15:38:15;96522.72;;;20.85;50.71
48778;BME280;34578;0.000;0.000;2023-08-31T15:43:16;96521.81;;;20.89;50.56
48778;BME280;34578;0.000;0.000;2023-08-31T15:48:17;96504.00;;;20.92;49.73
48778;BME280;34578;0.000;0.000;2023-08-31T15:53:17;96509.28;;;20.74;49.00
48778;BME280;34578;0.000;0.000;2023-08-31T15:58:18;96504.06;;;20.83;48.76
48778;BME280;34578;0.000;0.000;2023-08-31T16:03:18;96509.28;;;20.74;48.26
48778;BME280;34578;0.000;0.000;2023-08-31T16:08:18;96519.34;;;20.86;50.55
48778;BME280;34578;0.000;0.000;2023-08-31T16:13:19;96523.50;;;20.90;48.82
48778;BME280;34578;0.000;0.000;2023-08-31T16:18:19;96529.28;;;21.04;50.80
48778;BME280;34578;0.000;0.000;2023-08-31T16:23:20;96531.81;;;21.04;52.49
48778;BME280;34578;0.000;0.000;2023-08-31T16:28:20;96527.66;;;21.00;52.87
48778;BME280;34578;0.000;0.000;2023-08-31T16:33:20;96519.16;;;21.00;54.05
48778;BME280;34578;0.000;0.000;2023-08-31T16:38:21;96520.06;;;20.96;54.13
48778;BME280;34578;0.000;0.000;2023-08-31T16:43:21;96522.63;;;20.94;54.27
48778;BME280;34578;0.000;0.000;2023-08-31T16:48:24;96520.94;;;20.92;54.54
48778;BME280;34578;0.000;0.000;2023-08-31T16:53:24;96512.50;;;20.88;54.45
48778;BME280;34578;0.000;0.000;2023-08-31T16:58:25;96502.31;;;20.90;55.12
48778;BME280;34578;0.000;0.000;2023-08-31T17:03:25;96512.50;;;20.88;54.64
48778;BME280;34578;0.000;0.000;2023-08-31T17:08:26;96498.97;;;20.86;55.20
48778;BME280;34578;0.000;0.000;2023-08-31T17:13:26;96507.44;;;20.85;55.29
48778;BME280;34578;0.000;0.000;2023-08-31T17:18:26;96486.31;;;20.79;55.87
48778;BME280;34578;0.000;0.000;2023-08-31T17:23:27;96500.59;;;20.90;55.73
48778;BME280;34578;0.000;0.000;2023-08-31T17:28:27;96500.59;;;20.90;55.79
48778;BME280;34578;0.000;0.000;2023-08-31T17:33:27;96502.31;;;20.91;56.45
48778;BME280;34578;0.000;0.000;2023-08-31T17:38:29;96474.44;;;20.79;56.25
48778;BME280;34578;0.000;0.000;2023-08-31T17:43:29;96485.38;;;20.87;56.02
48778;BME280;34578;0.000;0.000;2023-08-31T17:48:30;96491.31;;;20.88;55.98
48778;BME280;34578;0.000;0.000;2023-08-31T17:53:35;96499.84;;;20.87;55.95
48778;BME280;34578;0.000;0.000;2023-08-31T17:58:36;96503.22;;;20.84;55.91
48778;BME280;34578;0.000;0.000;2023-08-31T18:03:36;96502.34;;;20.85;56.18
48778;BME280;34578;0.000;0.000;2023-08-31T18:08:36;96509.16;;;20.83;56.13
48778;BME280;34578;0.000;0.000;2023-08-31T18:13:37;96499.88;;;20.78;56.25
48778;BME280;34578;0.000;0.000;2023-08-31T18:18:37;96498.19;;;20.80;56.48
48778;BME280;34578;0.000;0.000;2023-08-31T18:23:38;96505.75;;;20.84;56.45
48778;BME280;34578;0.000;0.000;2023-08-31T18:28:40;96497.28;;;20.84;56.08
48778;BME280;34578;0.000;0.000;2023-08-31T18:33:41;96509.19;;;20.80;57.15
48778;BME280;34578;0.000;0.000;2023-08-31T18:38:41;96516.88;;;20.77;57.08
48778;BME280;34578;0.000;0.000;2023-08-31T18:43:41;96507.56;;;20.73;57.63
48778;BME280;34578;0.000;0.000;2023-08-31T18:48:45;96529.09;;;20.45;56.82
48778;BME280;34578;0.000;0.000;2023-08-31T18:53:45;96525.84;;;20.33;56.09
48778;BME280;34578;0.000;0.000;2023-08-31T18:58:45;96527.69;;;20.21;56.22
48778;BME280;34578;0.000;0.000;2023-08-31T19:03:47;96532.00;;;20.13;56.06
48778;BME280;34578;0.000;0.000;2023-08-31T19:08:49;96537.03;;;20.16;56.02
48778;BME280;34578;0.000;0.000;2023-08-31T19:13:49;96550.69;;;20.09;56.60
48778;BME280;34578;0.000;0.000;2023-08-31T19:18:53;96552.38;;;20.07;56.56
48778;BME280;34578;0.000;0.000;2023-08-31T19:23:53;96557.44;;;20.10;58.11
48778;BME280;34578;0.000;0.000;2023-08-31T19:28:54;96550.69;;;20.03;56.30
48778;BME280;34578;0.000;0.000;2023-08-31T19:33:54;96557.47;;;20.04;56.49
48778;BME280;34578;0.000;0.000;2023-08-31T19:38:55;96558.31;;;20.01;56.53
48778;BME280;34578;0.000;0.000;2023-08-31T19:43:55;96571.03;;;20.03;56.14
48778;BME280;34578;0.000;0.000;2023-08-31T19:48:55;96567.66;;;19.98;56.64
48778;BME280;34578;0.000;0.000;2023-08-31T19:53:55;96570.25;;;19.95;56.82
48778;BME280;34578;0.000;0.000;2023-08-31T19:58:56;96571.06;;;19.97;56.70
48778;BME280;34578;0.000;0.000;2023-08-31T20:03:59;96583.81;;;19.95;56.93
48778;BME280;34578;0.000;0.000;2023-08-31T20:09:00;96581.22;;;19.97;57.17
48778;BME280;34578;0.000;0.000;2023-08-31T20:14:00;96579.47;;;20.12;56.74
48778;BME280;34578;0.000;0.000;2023-08-31T20:19:04;96582.03;;;20.02;56.26
48778;BME280;34578;0.000;0.000;2023-08-31T20:24:05;96592.28;;;19.91;57.01
48778;BME280;34578;0.000;0.000;2023-08-31T20:29:05;96593.03;;;20.04;56.81
48778;BME280;34578;0.000;0.000;2023-08-31T20:34:05;96597.13;;;20.23;56.43
48778;BME280;34578;0.000;0.000;2023-08-31T20:39:06;96593.69;;;20.31;56.68
48778;BME280;34578;0.000;0.000;2023-08-31T20:44:09;96592.81;;;20.34;56.94
48778;BME280;34578;0.000;0.000;2023-08-31T20:49:10;96598.69;;;20.40;57.07
48778;BME280;34578;0.000;0.000;2023-08-31T20:54:10;96607.16;;;20.39;57.14
48778;BME280;34578;0.000;0.000;2023-08-31T20:59:11;96603.81;;;20.36;57.16
48778;BME280;34578;0.000;0.000;2023-08-31T21:04:11;96609.75;;;20.35;57.30
48778;BME280;34578;0.000;0.000;2023-08-31T21:09:12;96601.25;;;20.36;57.07
48778;BME280;34578;0.000;0.000;2023-08-31T21:14:12;96597.91;;;20.34;57.18
48778;BME280;34578;0.000;0.000;2023-08-31T21:19:12;96603.81;;;20.37;57.15
48778;BME280;34578;0.000;0.000;2023-08-31T21:24:13;96604.63;;;20.38;57.38
48778;BME280;34578;0.000;0.000;2023-08-31T21:29:13;96597.03;;;20.33;57.10
48778;BME280;34578;0.000;0.000;2023-08-31T21:34:13;96600.44;;;20.34;57.56
48778;BME280;34578;0.000;0.000;2023-08-31T21:39:14;96601.25;;;20.36;57.45
48778;BME280;34578;0.000;0.000;2023-08-31T21:44:14;96607.25;;;20.29;57.72
48778;BME280;34578;0.000;0.000;2023-08-31T21:49:15;96614.00;;;20.33;57.55
48778;BME280;34578;0.000;0.000;2023-08-31T21:54:15;96606.38;;;20.33;57.72
48778;BME280;34578;0.000;0.000;2023-08-31T21:59:15;96612.34;;;20.30;58.10
48778;BME280;34578;0.000;0.000;2023-08-31T22:04:16;96608.13;;;20.29;58.00
48778;BME280;34578;0.000;0.000;2023-08-31T22:09:17;96597.94;;;20.28;58.08
48778;BME280;34578;0.000;0.000;2023-08-31T22:14:19;96598.81;;;20.25;58.19
48778;BME280;34578;0.000;0.000;2023-08-31T22:19:20;96592.91;;;20.23;58.18
48778;BME280;34578;0.000;0.000;2023-08-31T22:24:21;96598.81;;;20.24;57.88
48778;BME280;34578;0.000;0.000;2023-08-31T22:29:21;96587.91;;;20.13;58.83
48778;BME280;34578;0.000;0.000;2023-08-31T22:34:22;96592.16;;;20.11;58.94
48778;BME280;34578;0.000;0.000;2023-08-31T22:39:23;96576.97;;;20.00;59.25
48778;BME280;34578;0.000;0.000;2023-08-31T22:44:26;96582.91;;;20.01;59.48
48778;BME280;34578;0.000;0.000;2023-08-31T22:49:28;96595.63;;;20.01;59.04
48778;BME280;34578;0.000;0.000;2023-08-31T22:54:29;96587.09;;;20.11;58.81
48778;BME280;34578;0.000;0.000;2023-08-31T22:59:29;96584.50;;;20.17;58.53
48778;BME280;34578;0.000;0.000;2023-08-31T23:04:30;96587.94;;;20.10;58.70
48778;BME280;34578;0.000;0.000;2023-08-31T23:09:30;96586.25;;;20.06;58.99
48778;BME280;34578;0.000;0.000;2023-08-31T23:14:30;96588.00;;;20.01;59.02
48778;BME280;34578;0.000;0.000;2023-08-31T23:19:31;96587.13;;;20.00;59.17
48778;BME280;34578;0.000;0.000;2023-08-31T23:24:31;96593.84;;;20.10;58.67
48778;BME280;34578;0.000;0.000;2023-08-31T23:29:32;96587.94;;;20.04;59.02
48778;BME280;34578;0.000;0.000;2023-08-31T23:34:32;96584.50;;;20.14;58.69
48778;BME280;34578;0.000;0.000;2023-08-31T23:39:32;96586.13;;;20.21;58.66
48778;BME280;34578;0.000;0.000;2023-08-31T23:44:33;96585.22;;;20.28;58.58
48778;BME280;34578;0.000;0.000;2023-08-31T23:49:33;96573.38;;;20.27;57.95
48778;BME280;34578;0.000;0.000;2023-08-31T23:54:33;96581.00;;;20.27;57.90
48778;BME280;34578;0.000;0.000;2023-08-31T23:59:34;96557.22;;;20.31;58.19
